createdAt,value
2023-04-20T00:00:17.806Z,3.83
2023-04-20T00:02:46.397Z,3.50
2023-04-20T00:05:14.116Z,3.87
2023-04-20T00:07:41.752Z,3.70
2023-04-20T00:10:12.168Z,4.10
2023-04-20T00:12:39.891Z,3.75
2023-04-20T00:15:07.827Z,4.00
2023-04-20T00:17:36.662Z,3.87
2023-04-20T00:20:05.358Z,4.07
2023-04-20T00:22:32.982Z,4.47
2023-04-20T00:25:00.574Z,3.65
2023-04-20T00:27:28.876Z,4.18
2023-04-20T00:29:56.570Z,3.90
2023-04-20T00:32:24.295Z,4.28
2023-04-20T00:34:51.879Z,4.15
2023-04-20T00:37:19.432Z,4.10
2023-04-20T00:39:47.246Z,4.30
2023-04-20T00:42:15.146Z,4.70
2023-04-20T00:44:42.679Z,4.05
2023-04-20T00:50:31.780Z,4.35
2023-04-20T00:52:59.667Z,4.57
2023-04-20T00:55:28.472Z,4.70
2023-04-20T00:57:56.445Z,4.20
2023-04-20T01:00:24.463Z,4.03
2023-04-20T01:02:52.143Z,4.63
2023-04-20T01:05:20.561Z,5.20
2023-04-20T01:07:49.611Z,4.40
2023-04-20T01:10:17.185Z,4.68
2023-04-20T01:12:44.999Z,4.95
2023-04-20T01:15:12.724Z,5.70
2023-04-20T01:18:03.783Z,4.47
2023-04-20T01:20:31.593Z,4.77
2023-04-20T01:22:59.116Z,4.60
2023-04-20T01:25:26.750Z,4.85
2023-04-20T01:27:54.236Z,4.45
2023-04-20T01:30:23.059Z,5.28
2023-04-20T01:32:51.444Z,4.30
2023-04-20T01:35:19.148Z,4.50
2023-04-20T01:37:46.729Z,4.85
2023-04-20T01:40:15.228Z,4.97
2023-04-20T01:42:42.838Z,5.15
2023-04-20T01:45:10.597Z,4.73
2023-04-20T01:47:38.205Z,4.93
2023-04-20T01:50:08.593Z,4.50
2023-04-20T01:52:36.236Z,5.18
2023-04-20T01:55:03.944Z,5.00
2023-04-20T01:57:31.640Z,4.40
2023-04-20T01:59:59.179Z,5.07
2023-04-20T02:02:27.860Z,4.55
2023-04-20T02:04:55.616Z,4.72
2023-04-20T02:07:23.237Z,4.80
2023-04-20T02:09:50.897Z,4.30
2023-04-20T02:12:18.454Z,4.88
2023-04-20T02:14:46.140Z,4.15
2023-04-20T02:17:15.097Z,4.20
2023-04-20T02:19:42.829Z,4.63
2023-04-20T02:22:10.691Z,4.07
2023-04-20T02:24:38.436Z,4.40
2023-04-20T02:27:06.029Z,4.20
2023-04-20T02:29:33.555Z,4.05
2023-04-20T02:32:01.270Z,3.75
2023-04-20T02:34:28.795Z,4.63
2023-04-20T02:36:57.743Z,3.88
2023-04-20T02:39:25.764Z,4.40
2023-04-20T02:41:55.075Z,4.25
2023-04-20T02:44:22.719Z,4.22
2023-04-20T02:46:51.117Z,3.63
2023-04-20T02:49:19.663Z,3.92
2023-04-20T02:51:47.716Z,4.45
2023-04-20T02:54:15.347Z,3.90
2023-04-20T02:56:43.032Z,3.42
2023-04-20T02:59:11.176Z,3.97
2023-04-20T03:01:38.865Z,3.67
2023-04-20T03:04:13.419Z,3.72
2023-04-20T03:06:50.736Z,3.75
2023-04-20T03:09:25.483Z,4.28
2023-04-20T03:12:02.380Z,4.10
2023-04-20T03:14:44.610Z,3.70
2023-04-20T03:17:12.536Z,4.40
2023-04-20T03:19:40.779Z,3.60
2023-04-20T03:22:11.332Z,3.60
2023-04-20T03:24:39.004Z,3.93
2023-04-20T03:27:17.361Z,4.07
2023-04-20T03:30:03.536Z,4.00
2023-04-20T03:32:34.351Z,4.13
2023-04-20T03:35:02.108Z,3.70
2023-04-20T03:37:29.770Z,3.73
2023-04-20T03:39:57.323Z,3.70
2023-04-20T03:42:26.082Z,3.72
2023-04-20T03:44:55.560Z,4.03
2023-04-20T03:47:23.157Z,3.83
2023-04-20T03:49:53.763Z,3.63
2023-04-20T03:52:21.622Z,3.70
2023-04-20T03:54:49.373Z,3.33
2023-04-20T03:57:17.843Z,3.45
2023-04-20T03:59:48.627Z,3.42
2023-04-20T04:11:32.715Z,3.03
2023-04-20T04:14:01.277Z,3.13
2023-04-20T04:16:29.732Z,2.92
2023-04-20T04:18:57.562Z,3.10
2023-04-20T04:21:25.567Z,2.90
2023-04-20T04:23:59.244Z,3.38
2023-04-20T04:26:58.624Z,3.47
2023-04-20T04:29:27.968Z,3.40
2023-04-20T04:31:59.019Z,3.17
2023-04-20T04:34:29.968Z,3.53
2023-04-20T04:36:58.117Z,3.80
2023-04-20T04:39:37.542Z,3.63
2023-04-20T04:42:13.220Z,3.78
2023-04-20T04:44:43.683Z,3.70
2023-04-20T04:47:17.701Z,3.25
2023-04-20T04:49:47.323Z,3.60
2023-04-20T04:52:17.724Z,3.53
2023-04-20T04:54:45.324Z,3.45
2023-04-20T04:57:12.926Z,3.70
2023-04-20T04:59:40.865Z,3.88
2023-04-20T05:02:08.450Z,3.78
2023-04-20T05:04:36.227Z,3.53
2023-04-20T05:07:03.948Z,3.13
2023-04-20T05:09:33.695Z,3.40
2023-04-20T05:12:01.235Z,3.53
2023-04-20T05:14:29.110Z,3.20
2023-04-20T05:16:56.748Z,3.63
2023-04-20T05:19:24.398Z,3.20
2023-04-20T05:21:51.992Z,3.40
2023-04-20T05:24:19.632Z,3.50
2023-04-20T05:26:47.215Z,3.72
2023-04-20T05:29:16.499Z,3.67
2023-04-20T05:31:45.320Z,3.25
2023-04-20T05:34:12.967Z,3.13
2023-04-20T05:36:41.281Z,3.35
2023-04-20T05:39:09.157Z,3.40
2023-04-20T05:41:36.662Z,3.13
2023-04-20T05:44:04.289Z,3.00
2023-04-20T05:46:31.827Z,3.80
2023-04-20T05:48:59.403Z,3.13
2023-04-20T05:51:30.489Z,2.88
2023-04-20T05:53:58.373Z,3.28
2023-04-20T05:56:25.874Z,3.00
2023-04-20T05:58:54.887Z,2.93
2023-04-20T06:01:22.441Z,2.88
2023-04-20T06:03:50.283Z,2.90
2023-04-20T06:06:17.982Z,2.60
2023-04-20T06:08:45.608Z,2.83
2023-04-20T06:11:13.173Z,2.83
2023-04-20T06:13:40.699Z,2.58
2023-04-20T06:16:11.016Z,2.40
2023-04-20T06:18:38.880Z,2.80
2023-04-20T06:21:10.294Z,2.58
2023-04-20T06:23:38.406Z,2.60
2023-04-20T06:26:08.923Z,2.42
2023-04-20T06:28:39.721Z,2.53
2023-04-20T06:31:07.807Z,2.75
2023-04-20T06:33:35.689Z,2.38
2023-04-20T06:36:07.340Z,2.30
2023-04-20T06:38:34.902Z,2.70
2023-04-20T06:41:02.889Z,2.88
2023-04-20T06:43:31.168Z,2.67
2023-04-20T06:45:59.352Z,2.78
2023-04-20T06:48:31.682Z,2.70
2023-04-20T06:51:01.814Z,2.40
2023-04-20T06:53:29.353Z,2.83
2023-04-20T06:55:57.306Z,2.30
2023-04-20T06:58:25.167Z,2.00
2023-04-20T07:00:52.788Z,2.67
2023-04-20T07:03:20.671Z,2.50
2023-04-20T07:05:48.415Z,2.50
2023-04-20T07:08:16.213Z,2.35
2023-04-20T07:10:43.867Z,2.72
2023-04-20T07:13:11.424Z,2.23
2023-04-20T07:15:38.968Z,2.20
2023-04-20T07:18:06.727Z,2.45
2023-04-20T07:20:34.370Z,2.28
2023-04-20T07:23:01.910Z,2.28
2023-04-20T07:25:31.654Z,2.43
2023-04-20T07:27:59.479Z,2.47
2023-04-20T07:30:27.235Z,2.60
2023-04-20T07:32:54.885Z,2.72
2023-04-20T07:35:22.730Z,2.55
2023-04-20T07:37:50.674Z,2.40
2023-04-20T07:40:18.386Z,2.42
2023-04-20T07:42:46.088Z,2.50
2023-04-20T07:48:12.537Z,2.28
2023-04-20T07:50:40.598Z,2.50
2023-04-20T07:53:08.305Z,2.72
2023-04-20T07:55:36.137Z,2.75
2023-04-20T07:58:03.780Z,2.13
2023-04-20T08:00:31.298Z,2.40
2023-04-20T08:02:59.531Z,2.17
2023-04-20T08:05:27.751Z,2.50
2023-04-20T08:07:55.351Z,2.45
2023-04-20T08:10:23.180Z,2.50
2023-04-20T08:13:08.964Z,2.58
2023-04-20T08:15:39.554Z,2.43
2023-04-20T08:18:07.169Z,2.40
2023-04-20T08:20:34.869Z,2.22
2023-04-20T08:23:02.683Z,2.30
2023-04-20T08:25:32.397Z,2.60
2023-04-20T08:28:00.031Z,2.20
2023-04-20T08:30:27.674Z,2.50
2023-04-20T08:32:55.286Z,2.15
2023-04-20T08:35:23.130Z,1.90
2023-04-20T08:37:50.807Z,2.00
2023-04-20T08:40:20.165Z,1.80
2023-04-20T08:42:47.744Z,1.45
2023-04-20T08:45:15.331Z,1.63
2023-04-20T08:47:43.185Z,1.67
2023-04-20T08:50:11.395Z,1.70
2023-04-20T08:52:39.831Z,1.60
2023-04-20T08:55:08.072Z,1.73
2023-04-20T08:57:35.582Z,1.90
2023-04-20T09:00:13.871Z,1.80
2023-04-20T09:02:50.968Z,2.10
2023-04-20T09:05:29.687Z,1.80
2023-04-20T09:08:06.518Z,1.90
2023-04-20T09:11:17.798Z,1.98
2023-04-20T09:13:49.889Z,1.60
2023-04-20T09:16:17.854Z,1.60
2023-04-20T09:18:56.274Z,1.47
2023-04-20T09:21:31.569Z,1.80
2023-04-20T09:24:08.774Z,1.88
2023-04-20T09:26:57.804Z,1.73
2023-04-20T09:35:41.165Z,1.20
2023-04-20T09:38:09.905Z,1.52
2023-04-20T09:40:38.081Z,1.23
2023-04-20T09:43:46.058Z,1.50
2023-04-20T09:46:13.894Z,1.10
2023-04-20T09:48:41.690Z,0.95
2023-04-20T09:51:09.456Z,1.60
2023-04-20T09:53:37.292Z,1.20
2023-04-20T09:56:06.985Z,1.17
2023-04-20T09:58:35.207Z,1.30
2023-04-20T10:01:02.817Z,1.20
2023-04-20T10:03:30.814Z,1.10
2023-04-20T10:05:58.551Z,1.10
2023-04-20T10:08:26.695Z,1.10
2023-04-20T10:10:54.283Z,1.17
2023-04-20T10:13:33.530Z,1.42
2023-04-20T10:16:01.247Z,1.05
2023-04-20T10:18:29.190Z,1.20
2023-04-20T10:21:11.041Z,1.10
2023-04-20T10:23:52.079Z,1.13
2023-04-20T10:26:19.927Z,1.10
2023-04-20T10:28:47.757Z,0.98
2023-04-20T10:31:17.142Z,1.42
2023-04-20T10:33:55.693Z,1.30
2023-04-20T10:36:31.372Z,1.13
2023-04-20T10:39:01.581Z,0.90
2023-04-20T10:41:29.181Z,1.00
2023-04-20T10:44:07.543Z,1.08
2023-04-20T10:46:35.410Z,1.00
2023-04-20T10:49:03.711Z,1.10
2023-04-20T10:51:31.648Z,1.13
2023-04-20T10:54:08.177Z,1.10
2023-04-20T10:56:46.768Z,1.08
2023-04-20T10:59:22.509Z,1.20
2023-04-20T11:01:51.331Z,1.10
2023-04-20T11:04:19.369Z,0.93
2023-04-20T11:06:48.595Z,0.80
2023-04-20T11:09:26.701Z,1.13
2023-04-20T11:12:05.761Z,0.90
2023-04-20T11:14:50.383Z,0.70
2023-04-20T11:17:18.147Z,1.00
2023-04-20T11:19:47.163Z,0.80
2023-04-20T11:22:23.088Z,0.80
2023-04-20T11:24:50.745Z,0.70
2023-04-20T11:27:24.876Z,0.90
2023-04-20T11:29:59.686Z,0.70
2023-04-20T11:32:27.542Z,0.75
2023-04-20T11:35:07.536Z,0.73
2023-04-20T11:37:47.816Z,0.65
2023-04-20T11:40:15.517Z,0.60
2023-04-20T11:42:43.949Z,0.70
2023-04-20T11:45:11.796Z,0.70
2023-04-20T11:47:41.614Z,0.70
2023-04-20T11:50:10.475Z,0.90
2023-04-20T11:52:38.130Z,0.63
2023-04-20T11:55:06.307Z,0.80
2023-04-20T11:57:34.726Z,0.70
2023-04-20T12:00:02.428Z,0.70
2023-04-20T12:02:41.567Z,0.60
2023-04-20T12:05:09.800Z,0.50
2023-04-20T12:07:37.426Z,0.60
2023-04-20T12:10:06.407Z,0.88
2023-04-20T12:12:34.566Z,0.60
2023-04-20T12:15:02.196Z,0.80
2023-04-20T12:17:29.776Z,0.67
2023-04-20T12:19:58.043Z,0.65
2023-04-20T12:22:25.645Z,0.57
2023-04-20T12:24:53.240Z,0.52
2023-04-20T12:27:20.796Z,0.65
2023-04-20T12:29:48.607Z,0.60
2023-04-20T12:32:16.143Z,0.50
2023-04-20T12:34:45.646Z,0.47
2023-04-20T12:37:15.978Z,0.50
2023-04-20T12:39:43.581Z,0.65
2023-04-20T12:42:11.071Z,0.57
2023-04-20T12:44:38.635Z,0.60
2023-04-20T12:47:06.473Z,0.98
2023-04-20T12:49:34.301Z,0.50
2023-04-20T12:52:02.012Z,0.57
2023-04-20T12:54:29.638Z,0.50
2023-04-20T12:56:57.192Z,0.45
2023-04-20T12:59:24.822Z,0.63
2023-04-20T13:01:52.461Z,0.60
2023-04-20T13:04:20.494Z,0.40
2023-04-20T13:06:49.226Z,0.50
2023-04-20T13:09:16.889Z,0.60
2023-04-20T13:11:44.777Z,0.60
2023-04-20T13:14:12.441Z,0.52
2023-04-20T13:16:40.569Z,0.43
2023-04-20T13:19:08.205Z,0.50
2023-04-20T13:21:35.917Z,0.77
2023-04-20T13:24:03.793Z,0.45
2023-04-20T13:26:31.703Z,0.50
2023-04-20T13:28:59.421Z,0.65
2023-04-20T13:31:27.275Z,0.60
2023-04-20T13:33:55.045Z,0.60
2023-04-20T13:36:28.355Z,0.50
2023-04-20T13:38:56.519Z,0.60
2023-04-20T13:41:24.091Z,0.60
2023-04-20T13:43:51.736Z,0.70
2023-04-20T13:46:20.254Z,0.40
2023-04-20T13:48:47.938Z,0.50
2023-04-20T13:51:15.495Z,0.70
2023-04-20T13:53:43.204Z,0.55
2023-04-20T13:56:11.011Z,0.70
2023-04-20T13:58:38.624Z,0.88
2023-04-20T14:01:11.251Z,0.80
2023-04-20T14:03:39.174Z,0.80
2023-04-20T14:06:06.918Z,1.20
2023-04-20T14:08:34.529Z,0.73
2023-04-20T14:11:02.476Z,0.70
2023-04-20T14:13:30.039Z,0.85
2023-04-20T14:15:57.755Z,0.73
2023-04-20T14:18:25.808Z,0.60
2023-04-20T14:20:53.475Z,0.60
2023-04-20T14:23:20.998Z,1.00
2023-04-20T14:25:48.587Z,0.65
2023-04-20T14:28:17.808Z,0.73
2023-04-20T14:30:48.508Z,0.50
2023-04-20T14:33:16.307Z,0.60
2023-04-20T14:35:43.941Z,0.60
2023-04-20T14:38:11.679Z,1.00
2023-04-20T14:40:39.312Z,0.50
2023-04-20T14:43:06.912Z,0.68
2023-04-20T14:45:34.495Z,0.47
2023-04-20T14:48:02.129Z,0.70
2023-04-20T14:50:29.684Z,0.80
2023-04-20T14:52:57.971Z,0.60
2023-04-20T14:55:26.209Z,0.85
2023-04-20T14:57:55.435Z,0.60
2023-04-20T15:00:24.741Z,0.60
2023-04-20T15:02:53.171Z,0.52
2023-04-20T15:05:21.014Z,0.52
2023-04-20T15:07:50.970Z,1.65
2023-04-20T15:10:20.505Z,0.63
2023-04-20T15:12:48.777Z,0.40
2023-04-20T15:15:17.155Z,0.60
2023-04-20T15:17:47.519Z,0.50
2023-04-20T15:20:15.649Z,0.50
2023-04-20T15:22:44.002Z,0.60
2023-04-20T15:25:11.850Z,0.50
2023-04-20T15:27:39.528Z,0.60
2023-04-20T15:30:07.947Z,0.65
2023-04-20T15:32:35.593Z,0.50
2023-04-20T15:35:03.591Z,0.60
2023-04-20T15:37:31.475Z,0.50
2023-04-20T15:39:59.291Z,0.60
2023-04-20T15:42:27.654Z,0.60
2023-04-20T15:44:55.433Z,0.82
2023-04-20T15:47:22.984Z,0.57
2023-04-20T15:49:50.608Z,0.70
2023-04-20T15:52:18.143Z,0.70
2023-04-20T15:54:47.173Z,0.70
2023-04-20T15:57:14.753Z,0.50
2023-04-20T15:59:42.432Z,0.40
2023-04-20T16:02:10.036Z,0.70
2023-04-20T16:04:37.740Z,0.57
2023-04-20T16:07:05.552Z,0.52
2023-04-20T16:09:33.096Z,0.50
2023-04-20T16:12:03.110Z,0.40
2023-04-20T16:14:30.904Z,0.40
2023-04-20T16:17:02.631Z,0.43
2023-04-20T16:19:31.656Z,0.50
2023-04-20T16:21:59.290Z,0.50
2023-04-20T16:24:27.108Z,0.40
2023-04-20T16:26:57.160Z,0.47
2023-04-20T16:29:24.727Z,0.30
2023-04-20T16:31:52.536Z,0.50
2023-04-20T16:34:20.443Z,0.50
2023-04-20T16:36:50.237Z,0.40
2023-04-20T16:39:18.676Z,0.30
2023-04-20T16:41:46.539Z,0.30
2023-04-20T16:44:14.601Z,0.20
2023-04-20T16:46:42.383Z,0.43
2023-04-20T16:49:10.183Z,0.30
2023-04-20T16:51:38.071Z,0.30
2023-04-20T16:54:05.809Z,0.77
2023-04-20T16:56:33.369Z,0.45
2023-04-20T16:59:01.099Z,0.50
2023-04-20T17:01:28.687Z,0.30
2023-04-20T17:03:56.435Z,0.40
2023-04-20T17:06:24.044Z,0.25
2023-04-20T17:08:51.882Z,0.90
2023-04-20T17:11:19.863Z,0.32
2023-04-20T17:13:47.473Z,0.20
2023-04-20T17:16:15.064Z,0.30
2023-04-20T17:18:42.654Z,0.30
2023-04-20T17:21:10.174Z,0.50
2023-04-20T17:23:37.772Z,0.40
2023-04-20T17:26:06.796Z,0.50
2023-04-20T17:28:34.436Z,0.60
2023-04-20T17:31:01.960Z,0.30
2023-04-20T17:33:29.968Z,0.40
2023-04-20T17:35:57.621Z,0.57
2023-04-20T17:38:25.183Z,0.57
2023-04-20T17:40:52.864Z,0.50
2023-04-20T17:43:20.513Z,0.60
2023-04-20T17:45:51.129Z,0.50
2023-04-20T17:48:18.795Z,0.70
2023-04-20T17:50:50.554Z,0.70
2023-04-20T17:53:18.229Z,2.00
2023-04-20T17:55:45.970Z,0.40
2023-04-20T17:58:13.715Z,0.50
2023-04-20T18:00:41.278Z,0.43
2023-04-20T18:03:09.521Z,0.40
2023-04-20T18:05:37.211Z,0.50
2023-04-20T18:08:05.105Z,0.40
2023-04-20T18:10:34.148Z,0.70
2023-04-20T18:13:01.747Z,0.45
2023-04-20T18:15:29.451Z,0.50
2023-04-20T18:17:57.108Z,0.30
2023-04-20T18:20:24.727Z,0.30
2023-04-20T18:22:52.368Z,0.30
2023-04-20T18:25:20.274Z,0.40
2023-04-20T18:27:47.905Z,0.20
2023-04-20T18:30:16.272Z,0.30
2023-04-20T18:32:44.072Z,0.35
2023-04-20T18:35:11.708Z,0.30
2023-04-20T18:37:39.380Z,0.35
2023-04-20T18:40:07.830Z,0.43
2023-04-20T18:42:35.414Z,0.35
2023-04-20T18:45:03.626Z,0.30
2023-04-20T18:47:32.019Z,0.60
2023-04-20T18:49:59.602Z,0.32
2023-04-20T18:52:27.226Z,0.50
2023-04-20T18:54:55.594Z,0.50
2023-04-20T19:29:07.755Z,0.65
2023-04-20T19:31:38.002Z,0.30
2023-04-20T19:34:06.482Z,0.35
2023-04-20T19:36:34.631Z,0.43
2023-04-20T19:39:02.522Z,0.70
2023-04-20T19:41:30.095Z,0.38
2023-04-20T19:43:59.678Z,0.37
2023-04-20T19:46:27.425Z,0.30
2023-04-20T19:48:54.983Z,0.43
2023-04-20T19:51:25.469Z,0.30
2023-04-20T19:53:53.389Z,0.43
2023-04-20T19:56:21.013Z,0.37
2023-04-20T19:58:48.652Z,0.57
2023-04-20T20:01:16.418Z,0.40
2023-04-20T20:03:44.283Z,0.52
2023-04-20T20:06:12.427Z,0.35
2023-04-20T20:08:49.238Z,0.47
2023-04-20T20:11:16.957Z,0.43
2023-04-20T20:14:25.109Z,0.35
2023-04-20T20:16:52.756Z,0.40
2023-04-20T20:19:38.630Z,0.30
2023-04-20T20:22:06.674Z,0.40
2023-04-20T20:24:48.036Z,0.47
2023-04-20T20:27:18.594Z,0.40
2023-04-20T20:29:46.194Z,0.50
2023-04-20T20:32:13.704Z,0.50
2023-04-20T20:34:42.848Z,0.30
2023-04-20T20:37:10.572Z,0.50
2023-04-20T20:39:38.176Z,0.50
2023-04-20T20:42:07.129Z,0.55
2023-04-20T20:44:39.748Z,0.47
2023-04-20T20:51:20.916Z,0.43
2023-04-20T20:53:48.501Z,0.40
2023-04-20T20:56:16.202Z,0.50
2023-04-20T20:58:43.734Z,0.40
2023-04-20T21:01:11.347Z,0.43
2023-04-20T21:03:39.281Z,0.65
2023-04-20T21:06:07.019Z,0.90
2023-04-20T21:08:34.701Z,0.80
2023-04-20T21:11:02.488Z,0.98
2023-04-20T21:13:30.069Z,0.70
2023-04-20T21:15:57.937Z,0.70
2023-04-20T21:18:25.640Z,0.82
2023-04-20T21:20:53.228Z,0.60
2023-04-20T21:23:20.827Z,0.70
2023-04-20T21:25:48.474Z,1.30
2023-04-20T21:28:16.049Z,0.77
2023-04-20T21:30:43.572Z,0.55
2023-04-20T21:33:11.341Z,0.68
2023-04-20T21:35:38.905Z,0.82
2023-04-20T21:38:06.466Z,0.90
2023-04-20T21:40:34.347Z,0.85
2023-04-20T21:43:02.063Z,0.75
2023-04-20T21:45:29.646Z,0.77
2023-04-20T21:47:57.524Z,0.68
2023-04-20T21:50:27.193Z,0.70
2023-04-20T21:52:55.289Z,0.80
2023-04-20T21:55:22.788Z,0.68
2023-04-20T21:57:50.968Z,0.60
2023-04-20T22:00:18.739Z,0.60
2023-04-20T22:02:46.541Z,0.70
2023-04-20T22:05:14.208Z,0.63
2023-04-20T22:07:41.905Z,0.52
2023-04-20T22:10:09.867Z,0.70
2023-04-20T22:12:40.881Z,0.80
2023-04-20T22:15:13.644Z,0.70
2023-04-20T22:17:42.097Z,1.15
2023-04-20T22:20:11.339Z,0.63
2023-04-20T22:22:39.487Z,0.80
2023-04-20T22:25:08.676Z,0.65
2023-04-20T22:27:37.820Z,0.90
2023-04-20T22:30:06.618Z,0.90
2023-04-20T22:32:34.183Z,1.00
2023-04-20T22:35:02.014Z,1.08
2023-04-20T22:37:29.604Z,1.00
2023-04-20T22:39:57.169Z,0.90
2023-04-20T22:42:24.762Z,0.98
2023-04-20T22:45:11.855Z,1.00
2023-04-20T22:47:54.638Z,0.77
2023-04-20T22:50:22.502Z,0.75
2023-04-20T22:52:50.548Z,1.20
2023-04-20T22:55:18.158Z,1.50
2023-04-20T22:57:45.742Z,1.00
2023-04-20T23:00:14.600Z,0.85
2023-04-20T23:02:45.208Z,1.02
2023-04-20T23:05:12.912Z,1.10
2023-04-20T23:07:40.508Z,0.98
2023-04-20T23:10:09.141Z,1.08
2023-04-20T23:12:36.898Z,1.00
2023-04-20T23:15:06.076Z,1.05
2023-04-20T23:17:33.642Z,1.07
2023-04-20T23:20:01.135Z,1.00
2023-04-20T23:22:28.613Z,1.00
2023-04-20T23:24:57.528Z,1.23
2023-04-20T23:27:25.131Z,1.20
2023-04-20T23:29:52.682Z,1.40
2023-04-20T23:32:20.298Z,1.10
2023-04-20T23:34:47.855Z,1.30
2023-04-20T23:37:15.949Z,1.23
2023-04-20T23:39:43.441Z,1.15
2023-04-20T23:42:12.049Z,1.40
2023-04-20T23:44:39.536Z,1.38
2023-04-20T23:47:07.100Z,1.40
2023-04-20T23:49:37.336Z,1.52
2023-04-20T23:52:05.759Z,1.50
2023-04-20T23:54:33.554Z,1.33
2023-04-20T23:57:01.247Z,1.45
2023-04-20T23:59:28.836Z,1.50
